Time;durP1;ratioP1;P1;durP2;ratioP2;P2;SDS_P1;SDS_P2;PMS_P1;PMS_P2;Temp;Humidity;BMP_temperature;BMP_pressure;BME280_temperature;BME280_humidity;BME280_pressure;Samples;Min_cycle;Max_cycle;Signal;HPM_P1;HPM_P2
2022/05/14 00:02:40;;;;;;;2.10;1.08;;;18.00;38.30;;;16.02;41.57;101432.38;12234692;19;20105;-82
2022/05/14 00:06:42;;;;;;;1.50;1.17;;;18.00;38.40;;;16.00;41.73;101439.53;12242767;19;20512;-82
2022/05/14 00:15:04;;;;;;;0.85;0.85;;;17.80;38.40;;;15.84;41.70;101416.00;12246819;19;20460;-82
2022/05/14 00:19:08;;;;;;;1.50;0.95;;;17.90;38.50;;;15.77;41.74;101416.50;12246887;19;20015;-82
2022/05/14 00:23:10;;;;;;;2.05;0.98;;;17.90;38.60;;;15.78;41.97;101416.41;12248087;19;20015;-82
2022/05/14 00:27:12;;;;;;;3.75;0.90;;;17.70;38.40;;;15.69;41.90;101409.13;12247626;19;20023;-82
2022/05/14 00:31:14;;;;;;;1.52;1.00;;;17.80;38.60;;;15.61;42.00;101417.50;12249251;19;20014;-82
2022/05/14 00:35:17;;;;;;;3.20;1.17;;;17.70;38.50;;;15.59;41.99;101414.09;12245445;19;20039;-82
2022/05/14 00:39:18;;;;;;;2.15;0.90;;;17.70;38.60;;;15.36;42.08;101394.53;12247135;19;20025;-82
2022/05/14 00:43:21;;;;;;;1.45;1.02;;;17.70;38.60;;;15.38;42.24;101405.81;12243612;19;20015;-82
2022/05/14 00:47:23;;;;;;;3.17;1.00;;;17.50;38.60;;;15.36;42.12;101414.75;12246129;19;20014;-82
2022/05/14 00:51:28;;;;;;;1.48;1.38;;;17.50;39.00;;;15.21;42.34;101404.25;12247258;19;20015;-83
2022/05/14 00:55:33;;;;;;;1.95;0.82;;;17.40;38.70;;;15.18;42.19;101414.16;12246331;19;20018;-82
2022/05/14 00:59:36;;;;;;;1.52;0.90;;;17.40;38.70;;;15.03;42.46;101413.31;12245980;19;20019;-82
2022/05/14 01:03:38;;;;;;;1.08;0.82;;;17.20;38.70;;;14.86;42.39;101403.84;12242967;19;20018;-82
2022/05/14 01:07:41;;;;;;;1.20;1.10;;;17.20;38.70;;;14.83;42.55;101417.19;12245933;19;20024;-82
2022/05/14 01:11:43;;;;;;;1.77;1.02;;;17.10;38.80;;;14.36;42.65;101342.06;12244560;19;20483;-82
2022/05/14 01:15:53;;;;;;;0.90;0.90;;;16.90;38.80;;;14.62;43.00;101410.63;12244968;19;20018;-83
2022/05/14 01:19:58;;;;;;;2.60;1.10;;;16.90;39.10;;;14.55;42.88;101426.75;12244989;19;20018;-82
2022/05/14 01:28:37;;;;;;;1.17;1.00;;;16.60;39.30;;;14.35;43.08;101425.31;12243209;19;20015;-82
2022/05/14 01:32:39;;;;;;;1.55;0.93;;;16.60;39.20;;;14.25;43.12;101397.06;12243986;19;20818;-82
2022/05/14 01:36:41;;;;;;;1.15;0.95;;;16.60;39.50;;;14.32;43.07;101408.88;12243156;19;20006;-82
2022/05/14 01:40:43;;;;;;;2.00;1.00;;;16.40;39.60;;;14.43;43.26;101414.34;12245973;19;20482;-82
2022/05/14 01:44:45;;;;;;;1.20;1.10;;;16.50;39.80;;;14.54;43.41;101414.56;12233168;19;20074;-82
2022/05/14 01:48:48;;;;;;;1.85;1.27;;;16.40;39.90;;;14.41;43.35;101397.81;12243670;19;20032;-82
2022/05/14 01:52:49;;;;;;;1.25;1.15;;;16.30;39.90;;;14.45;43.50;101396.72;12242048;19;20014;-82
2022/05/14 01:56:51;;;;;;;1.27;1.10;;;16.60;40.20;;;14.69;43.57;101423.31;12243743;19;20038;-82
2022/05/14 02:00:54;;;;;;;1.10;1.00;;;16.70;40.20;;;14.65;43.60;101415.69;12241893;19;20068;-83
2022/05/14 02:04:56;;;;;;;1.33;1.17;;;16.70;40.20;;;14.76;43.40;101419.34;12241302;19;20035;-82
2022/05/14 02:08:59;;;;;;;3.10;1.20;;;16.70;40.30;;;14.68;43.54;101368.19;12243497;19;20034;-82
2022/05/14 02:13:01;;;;;;;1.08;1.02;;;16.70;40.30;;;14.81;43.77;101401.50;12242540;19;20015;-82
2022/05/14 02:17:03;;;;;;;1.48;1.08;;;16.80;40.40;;;14.74;43.57;101378.31;12243365;19;20015;-82
2022/05/14 02:21:07;;;;;;;1.70;1.05;;;16.90;40.40;;;14.95;43.59;101403.28;12243623;19;20014;-82
2022/05/14 02:25:10;;;;;;;3.03;1.30;;;16.90;40.40;;;14.72;43.90;101369.69;12239554;19;20022;-82
2022/05/14 02:29:12;;;;;;;1.35;1.10;;;17.00;40.50;;;14.61;43.83;101349.34;12240438;19;20042;-82
2022/05/14 02:33:15;;;;;;;3.35;1.33;;;16.80;40.30;;;14.64;44.09;101349.16;12242719;19;20020;-82
2022/05/14 02:37:19;;;;;;;2.47;1.38;;;17.00;40.40;;;15.03;44.12;101402.78;12242476;19;20018;-82
2022/05/14 02:41:22;;;;;;;1.83;1.07;;;16.80;40.30;;;15.12;43.96;101404.00;12240634;19;20010;-83
2022/05/14 02:45:24;;;;;;;2.90;1.20;;;17.10;40.40;;;14.84;43.97;101363.66;12238711;19;20275;-82
2022/05/14 02:49:26;;;;;;;1.73;1.00;;;17.20;40.40;;;15.11;43.88;101394.41;12241622;19;20015;-82
2022/05/14 02:53:28;;;;;;;1.80;1.23;;;17.00;40.30;;;15.11;43.91;101397.88;12239212;19;20018;-82
2022/05/14 02:57:29;;;;;;;2.58;1.15;;;17.10;40.40;;;15.12;44.08;101398.72;12240556;19;20017;-82
2022/05/14 03:01:31;;;;;;;1.38;1.13;;;17.20;40.50;;;15.25;44.00;101421.53;12240501;19;20030;-82
2022/05/14 03:05:33;;;;;;;3.42;1.60;;;17.10;40.40;;;15.19;44.11;101403.50;12238273;19;20015;-82
2022/05/14 03:09:36;;;;;;;1.55;1.08;;;17.30;40.60;;;15.26;44.16;101417.97;12240568;19;20023;-82
2022/05/14 03:13:38;;;;;;;1.55;1.20;;;17.30;40.50;;;15.20;44.13;101404.34;12238110;19;20088;-83
2022/05/14 03:17:41;;;;;;;1.75;1.13;;;17.30;40.50;;;15.30;44.21;101418.59;12239730;19;20014;-82
2022/05/14 03:21:43;;;;;;;2.47;1.10;;;17.40;40.60;;;15.17;44.21;101396.66;12240638;19;20034;-82
2022/05/14 03:25:45;;;;;;;1.98;1.52;;;17.30;40.50;;;15.29;44.37;101414.31;12236669;19;20026;-82
2022/05/14 03:29:46;;;;;;;2.40;1.33;;;17.40;40.60;;;15.32;44.04;101416.72;12240706;19;20095;-82
2022/05/14 03:33:48;;;;;;;1.50;1.20;;;17.20;40.60;;;15.12;44.32;101382.94;12235804;19;20006;-82
2022/05/14 03:37:50;;;;;;;2.08;1.15;;;17.30;40.50;;;15.13;44.27;101382.84;12238693;19;20680;-81
2022/05/14 03:41:52;;;;;;;2.83;1.20;;;17.40;40.60;;;15.25;44.37;101400.47;12238066;19;20043;-82
2022/05/14 03:45:54;;;;;;;2.35;1.27;;;17.40;40.60;;;15.34;44.35;101420.13;12237484;19;20030;-82
2022/05/14 03:49:55;;;;;;;2.35;1.48;;;17.40;40.70;;;15.30;44.37;101420.41;12237292;19;20360;-81
2022/05/14 03:53:58;;;;;;;1.25;1.13;;;17.40;40.60;;;15.24;44.39;101430.38;12236563;19;20066;-82
2022/05/14 03:57:59;;;;;;;1.10;1.10;;;17.40;40.70;;;15.22;44.59;101434.88;12229766;19;20258;-82
2022/05/14 04:02:03;;;;;;;1.80;1.30;;;17.40;40.70;;;15.29;44.69;101440.63;12232561;19;20082;-82
2022/05/14 04:06:06;;;;;;;2.38;1.20;;;17.30;40.80;;;15.32;44.74;101439.56;12232110;19;20434;-82
2022/05/14 04:10:09;;;;;;;2.15;1.45;;;17.30;41.20;;;15.16;44.89;101416.03;12234653;19;20476;-82
2022/05/14 04:14:12;;;;;;;1.35;1.25;;;17.30;40.90;;;15.28;44.82;101431.00;12233228;19;20010;-82
2022/05/14 04:18:14;;;;;;;1.70;1.30;;;17.20;40.90;;;15.27;44.66;101431.97;12235203;19;20092;-82
2022/05/14 04:22:16;;;;;;;2.30;1.30;;;17.10;40.90;;;15.23;44.82;101427.84;12234701;19;20026;-82
2022/05/14 04:26:22;;;;;;;1.67;1.27;;;17.20;41.00;;;15.30;44.63;101439.66;12230237;19;20018;-77
2022/05/14 04:30:25;;;;;;;2.03;1.27;;;17.30;41.10;;;15.33;45.04;101441.25;12234386;19;20022;-77
2022/05/14 04:34:26;;;;;;;1.50;1.42;;;17.30;41.10;;;15.35;45.00;101434.94;12232440;19;20031;-77
2022/05/14 04:38:29;;;;;;;1.88;1.38;;;17.20;41.20;;;15.36;45.11;101439.25;12232553;19;20014;-77
2022/05/14 04:42:31;;;;;;;1.75;1.25;;;17.30;41.30;;;15.34;45.07;101443.81;12231561;19;20014;-77
2022/05/14 04:46:35;;;;;;;1.25;0.95;;;17.40;41.40;;;15.16;45.10;101414.22;12230312;19;20019;-77
2022/05/14 04:50:38;;;;;;;1.45;1.25;;;17.40;41.40;;;15.36;45.14;101451.59;12235775;19;20785;-77
2022/05/14 04:54:40;;;;;;;3.10;1.52;;;17.20;41.30;;;15.27;45.13;101429.34;12241058;19;20581;-77
2022/05/14 04:58:42;;;;;;;2.10;1.42;;;17.40;41.50;;;15.22;45.17;101420.88;12244971;19;20019;-77
2022/05/14 05:07:05;;;;;;;2.40;1.42;;;17.40;41.50;;;15.52;45.33;101449.66;12245816;19;20010;-77
2022/05/14 05:11:06;;;;;;;1.95;1.55;;;17.50;41.50;;;15.59;45.40;101445.69;12243736;19;20023;-77
2022/05/14 05:15:08;;;;;;;3.22;1.27;;;17.50;41.60;;;15.61;45.29;101440.34;12242262;19;20033;-77
2022/05/14 05:19:10;;;;;;;3.00;1.40;;;17.60;41.70;;;15.72;45.27;101455.47;12245412;19;20494;-77
2022/05/14 05:23:14;;;;;;;1.63;1.15;;;17.60;41.60;;;15.29;45.43;101374.84;12244541;19;20029;-77
2022/05/14 05:27:16;;;;;;;2.17;1.20;;;17.60;41.60;;;15.87;45.37;101475.53;12245158;19;20031;-77
2022/05/14 05:31:17;;;;;;;3.45;1.30;;;17.80;41.60;;;15.83;45.33;101459.09;12247393;19;20082;-77
2022/05/14 05:35:20;;;;;;;6.25;1.38;;;17.80;41.50;;;15.96;45.42;101455.63;12240134;19;20022;-77
2022/05/14 05:39:21;;;;;;;2.30;1.15;;;17.90;41.70;;;16.13;45.32;101464.13;12243280;19;20010;-77
2022/05/14 05:43:22;;;;;;;3.38;1.38;;;18.00;41.80;;;16.36;45.19;101486.31;12243982;19;20022;-78
2022/05/14 05:47:24;;;;;;;2.53;1.52;;;18.10;41.70;;;16.52;45.11;101493.16;12228564;19;20521;-78
2022/05/14 05:51:26;;;;;;;1.90;1.25;;;18.20;41.40;;;16.65;45.12;101487.91;12242840;19;20025;-78
2022/05/14 05:59:47;;;;;;;3.90;1.52;;;18.50;41.50;;;17.03;45.06;101493.19;12242777;19;20380;-78
2022/05/14 06:03:49;;;;;;;2.42;1.23;;;18.70;41.30;;;17.13;44.90;101485.47;12239196;19;20078;-78
2022/05/14 06:07:51;;;;;;;3.08;1.52;;;18.80;41.30;;;17.07;44.79;101455.09;12239076;19;20024;-78
2022/05/14 06:11:53;;;;;;;5.03;1.50;;;19.00;41.20;;;17.44;44.75;101503.47;12240359;19;20086;-79
2022/05/14 06:15:56;;;;;;;2.55;1.38;;;19.10;40.90;;;17.54;44.61;101503.63;12227478;19;20046;-78
2022/05/14 06:19:57;;;;;;;3.60;1.42;;;19.30;40.80;;;17.63;44.48;101505.63;12232610;19;20114;-79
2022/05/14 06:23:58;;;;;;;1.95;1.40;;;19.30;40.70;;;17.73;44.51;101495.22;12236568;19;20092;-78
2022/05/14 06:28:00;;;;;;;3.53;1.52;;;19.50;40.60;;;17.89;44.61;101501.09;12238519;19;20019;-78
2022/05/14 06:32:02;;;;;;;3.75;2.15;;;19.80;40.70;;;17.87;44.35;101484.50;12236697;19;20026;-78
2022/05/14 06:36:04;;;;;;;2.88;1.30;;;19.70;40.20;;;17.98;44.41;101504.84;12236868;19;20022;-78
2022/05/14 06:40:07;;;;;;;3.85;1.58;;;19.80;40.20;;;18.03;44.26;101492.13;12238625;19;20587;-78
2022/05/14 06:44:09;;;;;;;5.32;1.55;;;19.90;40.30;;;18.00;44.20;101495.00;12236634;19;20015;-78
2022/05/14 06:48:12;;;;;;;4.25;1.63;;;19.90;40.20;;;18.04;44.24;101501.75;12239711;19;20022;-78
2022/05/14 06:52:17;;;;;;;3.22;1.25;;;19.90;39.80;;;17.74;44.29;101459.94;12236391;19;20054;-79
2022/05/14 06:56:21;;;;;;;2.65;1.30;;;20.00;39.80;;;17.94;44.12;101492.00;12235491;19;20015;-79
2022/05/14 07:00:22;;;;;;;5.18;1.30;;;20.00;39.80;;;18.02;43.97;101523.97;12237274;19;20011;-78
2022/05/14 07:08:45;;;;;;;3.10;1.35;;;19.90;39.70;;;17.96;44.14;101525.28;12236031;19;20463;-78
2022/05/14 07:12:46;;;;;;;5.45;2.20;;;19.90;39.80;;;18.07;44.12;101532.41;12234520;19;20011;-78
2022/05/14 07:16:50;;;;;;;3.55;1.48;;;19.80;39.80;;;18.16;43.98;101533.53;12214747;19;20110;-78
2022/05/14 07:20:51;;;;;;;3.55;1.83;;;20.00;39.90;;;18.16;44.10;101528.25;12237524;19;20006;-78
2022/05/14 07:24:53;;;;;;;4.18;1.88;;;19.90;39.70;;;18.20;43.79;101514.69;12233102;19;20014;-78
2022/05/14 07:28:55;;;;;;;4.22;1.63;;;20.00;39.70;;;18.24;44.16;101520.56;12236312;19;20479;-78
2022/05/14 07:32:56;;;;;;;5.03;1.52;;;20.10;39.70;;;18.31;44.05;101527.09;12237215;19;20568;-79
2022/05/14 07:37:33;;;;;;;3.58;2.00;;;20.10;39.80;;;18.34;43.97;101511.84;12236373;19;20019;-78
2022/05/14 07:41:40;;;;;;;4.65;1.80;;;20.20;39.80;;;18.38;44.17;101520.38;12234817;19;20010;-78
2022/05/14 07:45:45;;;;;;;6.78;1.50;;;20.20;40.00;;;18.04;44.00;101438.34;12233864;19;20014;-78
2022/05/14 07:49:47;;;;;;;;;;;20.30;40.10;;;18.46;43.88;101491.53;12234808;19;20025;-78
2022/05/14 07:53:49;;;;;;;2.75;1.40;;;20.30;40.00;;;18.69;43.90;101513.59;12233689;19;20416;-78
2022/05/14 07:57:50;;;;;;;1.55;1.35;;;20.50;40.30;;;18.71;43.98;101484.38;12233352;19;20397;-79
2022/05/14 08:01:52;;;;;;;4.43;1.50;;;20.50;40.30;;;19.01;43.91;101500.56;12234058;19;20046;-77
2022/05/14 08:05:54;;;;;;;2.47;1.45;;;20.60;40.20;;;19.04;44.03;101474.78;12226475;19;20010;-77
2022/05/14 08:09:56;;;;;;;7.45;1.77;;;20.80;40.30;;;19.34;43.70;101490.88;12228089;19;20360;-77
2022/05/14 08:13:59;;;;;;;6.90;1.80;;;21.00;40.40;;;19.48;43.75;101487.13;12226634;19;20109;-78
2022/05/14 08:18:00;;;;;;;3.45;1.50;;;21.10;40.20;;;19.69;43.64;101500.47;12230765;19;20015;-77
2022/05/14 08:26:23;;;;;;;7.35;2.03;;;21.40;40.00;;;19.83;43.57;101510.78;12232201;19;20120;-77
2022/05/14 08:30:30;;;;;;;5.80;2.13;;;21.50;39.80;;;19.78;43.70;101490.94;12246939;19;20042;-78
2022/05/14 08:34:32;;;;;;;2.65;1.70;;;21.60;40.00;;;19.79;43.64;101482.00;12242917;19;20034;-78
2022/05/14 08:38:34;;;;;;;2.92;1.83;;;21.70;39.70;;;19.74;43.63;101471.81;12243761;19;20017;-77
2022/05/14 08:42:38;;;;;;;4.93;1.88;;;21.70;39.50;;;19.95;43.25;101508.09;12246488;19;20346;-78
2022/05/14 08:46:41;;;;;;;6.10;1.88;;;21.80;39.60;;;19.93;43.52;101491.47;12240696;19;20886;-77
2022/05/14 08:50:49;;;;;;;2.60;1.27;;;21.60;39.40;;;19.97;43.24;101495.56;12247510;19;20025;-77
2022/05/14 08:55:01;;;;;;;4.43;1.63;;;21.80;39.50;;;19.82;43.46;101472.00;12242212;19;20384;-77
2022/05/14 08:59:33;;;;;;;5.75;1.60;;;22.00;39.90;;;19.98;43.29;101491.94;12245608;19;20009;-77
2022/05/14 09:03:35;;;;;;;2.85;1.48;;;21.80;39.40;;;20.04;43.28;101496.75;12241698;19;20014;-77
2022/05/14 09:07:37;;;;;;;6.93;1.60;;;21.80;39.40;;;20.08;43.40;101482.25;12244940;19;20010;-77
2022/05/14 09:11:50;;;;;;;5.10;1.70;;;21.90;39.70;;;20.30;43.17;101503.34;12243683;19;20006;-77
2022/05/14 09:15:59;;;;;;;3.10;1.40;;;22.00;39.40;;;20.21;42.86;101456.38;12245269;19;20026;-78
2022/05/14 09:20:04;;;;;;;4.30;1.52;;;22.10;39.10;;;20.37;42.83;101471.84;12239845;19;20030;-78
2022/05/14 09:24:25;;;;;;;4.28;1.52;;;22.20;39.10;;;20.56;42.94;101487.06;12243535;19;20014;-78
2022/05/14 09:28:48;;;;;;;3.25;1.48;;;22.30;39.20;;;20.70;42.71;101465.50;12242074;19;20018;-78
2022/05/14 09:32:50;;;;;;;5.00;1.50;;;22.40;38.90;;;20.94;42.22;101486.41;12241819;19;20387;-78
2022/05/14 09:36:51;;;;;;;4.15;1.70;;;22.60;38.60;;;20.95;42.43;101472.19;12242261;19;20375;-77
2022/05/14 09:40:55;;;;;;;3.20;1.67;;;22.50;38.50;;;21.10;42.31;101495.72;12243127;19;20035;-78
2022/05/14 09:44:57;;;;;;;1.98;1.50;;;22.80;38.30;;;21.15;42.09;101498.81;12238858;19;20082;-78
2022/05/14 09:49:07;;;;;;;2.45;1.25;;;22.80;38.10;;;21.15;41.72;101489.03;12239654;19;20010;-78
2022/05/14 09:53:09;;;;;;;4.25;1.75;;;22.80;37.80;;;20.63;41.99;101407.75;12241993;19;20014;-81
2022/05/14 09:57:49;;;;;;;5.40;1.35;;;23.00;37.90;;;21.19;41.63;101498.38;12240932;19;20067;-79
2022/05/14 10:02:33;;;;;;;3.20;1.42;;;23.00;37.50;;;21.17;41.71;101487.06;12243169;19;20022;-79
2022/05/14 10:06:49;;;;;;;4.90;1.50;;;23.00;37.60;;;21.06;41.34;101484.50;12238009;19;20048;-80
2022/05/14 10:11:10;;;;;;;3.55;1.55;;;23.00;37.20;;;20.70;41.38;101411.56;12242329;19;20102;-77
2022/05/14 10:15:45;;;;;;;3.65;1.35;;;23.00;37.20;;;21.19;41.19;101490.41;12237098;19;20007;-77
2022/05/14 10:20:35;;;;;;;2.88;1.60;;;23.00;37.20;;;21.25;41.44;101494.34;12241485;19;20013;-82
2022/05/14 10:30:01;;;;;;;3.00;1.30;;;23.10;37.00;;;21.31;41.35;101485.84;12241557;19;20035;-81
2022/05/14 10:34:12;;;;;;;3.55;1.48;;;23.00;37.30;;;21.39;40.84;101486.03;12232726;19;20022;-81
2022/05/14 10:38:21;;;;;;;2.72;1.15;;;23.10;37.00;;;21.38;40.96;101464.91;12240320;19;20019;-81
2022/05/14 10:42:54;;;;;;;2.75;1.17;;;23.20;36.80;;;21.40;40.66;101465.63;12238378;19;20105;-83
2022/05/14 10:47:02;;;;;;;5.55;1.70;;;23.20;36.80;;;21.45;40.65;101474.03;12236466;19;20010;-82
2022/05/14 10:51:08;;;;;;;6.90;1.58;;;23.10;36.50;;;21.47;40.63;101477.41;12241441;19;20022;-82
2022/05/14 10:55:24;;;;;;;4.78;2.08;;;23.30;36.60;;;21.43;40.42;101470.66;12239223;19;20510;-81
2022/05/14 10:59:54;;;;;;;2.83;1.55;;;23.30;36.40;;;21.47;40.64;101468.56;12242164;19;20074;-81
2022/05/14 11:04:13;;;;;;;4.18;1.27;;;23.30;36.50;;;21.64;40.58;101467.91;12227457;19;20022;-81
2022/05/14 11:08:46;;;;;;;6.03;1.60;;;23.40;36.60;;;21.85;40.13;101473.09;12235993;19;20078;-81
2022/05/14 11:12:50;;;;;;;5.70;2.08;;;23.40;36.50;;;21.85;40.09;101435.84;12237560;19;20030;-81
2022/05/14 11:16:52;;;;;;;3.50;1.90;;;23.60;36.60;;;22.18;40.03;101476.28;12239411;19;20341;-80
2022/05/14 11:20:59;;;;;;;5.70;1.55;;;23.70;36.50;;;22.22;39.76;101441.28;12239117;19;20018;-81
2022/05/14 11:25:24;;;;;;;4.15;1.70;;;23.70;36.30;;;22.46;39.53;101475.41;12236309;19;20467;-81
2022/05/14 11:29:28;;;;;;;;;;;24.00;36.30;;;22.43;39.98;101459.72;12243676;19;20030;-81
2022/05/14 11:33:32;;;;;;;4.15;1.40;;;24.00;36.70;;;22.39;39.77;101469.00;12236377;19;19919;-81
2022/05/14 11:37:43;;;;;;;2.83;1.35;;;24.20;36.20;;;22.38;39.42;101461.16;12238473;19;20090;-81
2022/05/14 11:41:46;;;;;;;6.90;1.55;;;24.30;36.00;;;22.51;39.35;101488.28;12241572;19;20464;-81
2022/05/14 11:46:09;;;;;;;4.35;1.48;;;24.30;35.80;;;22.50;39.18;101490.13;12237285;19;20010;-81
2022/05/14 11:50:14;;;;;;;5.93;1.40;;;24.30;35.80;;;22.43;39.48;101477.53;12240897;19;20046;-81
2022/05/14 11:54:23;;;;;;;;;;;24.20;35.80;;;22.27;39.77;101423.06;12237493;19;20015;-81
2022/05/14 11:58:43;;;;;;;3.97;1.48;;;24.30;36.40;;;22.53;39.33;101471.19;12240214;19;19923;-81
2022/05/14 12:02:55;;;;;;;3.83;1.35;;;24.30;36.00;;;22.61;39.46;101498.94;12245454;19;20022;-81
2022/05/14 12:07:22;;;;;;;2.75;1.30;;;24.50;35.60;;;22.54;38.92;101494.16;12246050;19;20015;-81
2022/05/14 12:11:55;;;;;;;5.07;1.50;;;24.30;35.40;;;22.67;39.01;101493.84;12249107;19;20026;-80
2022/05/14 12:15:59;;;;;;;5.05;1.50;;;24.30;35.60;;;22.68;38.95;101495.56;12251864;19;20015;-81
2022/05/14 12:20:03;;;;;;;3.03;1.65;;;24.40;35.70;;;22.64;39.17;101488.81;12250756;19;20014;-81
2022/05/14 12:24:05;;;;;;;4.63;1.45;;;24.40;35.60;;;22.60;39.10;101475.94;12247507;19;20022;-81
2022/05/14 12:28:32;;;;;;;3.28;1.52;;;24.50;35.60;;;22.68;39.02;101481.38;12250859;19;20396;-81
2022/05/14 12:37:16;;;;;;;4.60;1.77;;;24.50;35.50;;;22.78;38.43;101494.66;12249694;19;20015;-80
2022/05/14 12:41:39;;;;;;;4.93;1.95;;;24.50;35.40;;;22.73;38.80;101485.28;12251540;19;20070;-81
2022/05/14 12:45:59;;;;;;;3.45;1.52;;;24.50;35.30;;;22.66;38.61;101465.56;12245466;19;20136;-80
2022/05/14 12:50:02;;;;;;;5.70;2.25;;;24.50;35.30;;;22.73;38.50;101482.63;12248124;19;20043;-79
2022/05/14 12:54:03;;;;;;;5.22;1.40;;;24.40;35.20;;;22.81;38.47;101487.22;12246264;19;20035;-79
2022/05/14 12:58:06;;;;;;;4.95;1.77;;;24.90;35.50;;;22.78;38.70;101463.53;12250096;19;20042;-79
2022/05/14 13:02:31;;;;;;;4.07;1.70;;;24.50;35.20;;;22.99;38.12;101487.31;12247798;19;20018;-79
2022/05/14 13:06:36;;;;;;;4.80;1.88;;;24.60;35.00;;;22.93;38.21;101488.72;12244287;19;20447;-79
2022/05/14 13:10:45;;;;;;;5.00;1.70;;;24.70;35.30;;;22.95;38.12;101496.56;12247804;19;20031;-80
2022/05/14 13:14:56;;;;;;;7.53;1.75;;;24.60;34.90;;;22.82;37.98;101474.72;12242687;19;20031;-79
2022/05/14 13:19:05;;;;;;;5.75;1.75;;;24.50;34.70;;;22.84;38.44;101478.94;12247266;19;20352;-79
2022/05/14 13:23:17;;;;;;;5.13;2.00;;;24.50;34.90;;;22.64;38.26;101450.72;12245972;19;20022;-79
2022/05/14 13:27:35;;;;;;;8.88;2.45;;;24.50;34.90;;;22.86;38.11;101482.28;12245867;19;20559;-79
2022/05/14 13:31:37;;;;;;;6.75;2.17;;;24.60;35.00;;;22.83;38.22;101474.59;12248029;19;20011;-79
2022/05/14 13:40:16;;;;;;;4.35;1.90;;;24.60;35.10;;;22.97;37.73;101479.47;12242609;19;20018;-85
2022/05/14 13:44:23;;;;;;;4.85;1.83;;;24.70;35.00;;;23.07;38.22;101483.94;12243923;19;20025;-85
2022/05/14 13:48:47;;;;;;;3.63;1.55;;;24.70;35.20;;;23.11;38.03;101475.47;12233299;19;20017;-86
2022/05/14 13:52:53;;;;;;;4.97;2.20;;;24.70;35.00;;;23.06;37.60;101471.56;12228632;19;20022;-85
2022/05/14 13:57:17;;;;;;;5.95;2.08;;;24.70;34.80;;;23.08;38.06;101469.59;12228877;19;20622;-87
2022/05/14 14:01:33;;;;;;;5.82;1.73;;;24.80;34.80;;;22.95;37.51;101461.91;12228266;19;20031;-84
2022/05/14 14:05:36;;;;;;;3.17;1.70;;;24.80;34.70;;;23.05;37.50;101459.25;12216431;19;20018;-85
2022/05/14 14:09:39;;;;;;;6.32;2.38;;;24.80;34.70;;;23.07;37.63;101457.28;12230833;19;20013;-85
2022/05/14 14:13:41;;;;;;;4.82;1.98;;;24.80;34.70;;;23.16;37.38;101467.03;12228571;19;20018;-86
2022/05/14 14:17:44;;;;;;;6.50;2.00;;;24.90;34.70;;;23.05;37.81;101467.25;12228806;19;20011;-85
2022/05/14 14:21:46;;;;;;;4.10;1.73;;;24.80;34.70;;;22.99;37.54;101457.19;12226188;19;20516;-85
2022/05/14 14:25:49;;;;;;;3.65;1.80;;;24.80;34.50;;;23.03;37.49;101464.72;12220895;19;20486;-85
2022/05/14 14:29:52;;;;;;;4.30;1.63;;;24.80;34.40;;;22.87;37.56;101429.84;12228556;19;20038;-85
2022/05/14 14:33:54;;;;;;;4.05;1.88;;;25.00;34.60;;;23.05;37.32;101469.91;12224647;19;20023;-85
2022/05/14 14:37:56;;;;;;;3.90;1.88;;;25.00;34.70;;;23.07;37.28;101474.09;12226627;19;20377;-85
2022/05/14 14:41:57;;;;;;;3.58;1.58;;;24.70;34.40;;;23.03;37.26;101470.03;12225508;19;20025;-84
2022/05/14 14:46:00;;;;;;;3.83;1.45;;;24.80;34.50;;;23.00;37.23;101466.84;12215221;19;20026;-85
2022/05/14 14:50:02;;;;;;;6.40;1.90;;;24.80;34.60;;;22.99;37.47;101471.34;12229460;19;21024;-85
2022/05/14 14:54:04;;;;;;;4.65;2.15;;;24.70;34.60;;;22.87;37.73;101451.16;12224285;19;20019;-86
2022/05/14 14:58:07;;;;;;;9.98;2.25;;;24.80;34.80;;;23.01;37.62;101456.06;12227795;19;20353;-86
2022/05/14 15:02:22;;;;;;;4.22;1.60;;;24.70;34.80;;;22.89;37.49;101428.72;12225824;19;20022;-85
2022/05/14 15:06:24;;;;;;;5.00;2.20;;;24.70;35.10;;;23.13;37.46;101484.16;12223392;19;20047;-86
2022/05/14 15:10:30;;;;;;;6.28;2.00;;;24.90;34.60;;;23.09;37.02;101474.81;12223870;19;20616;-85
2022/05/14 15:14:33;;;;;;;6.95;1.90;;;24.80;34.80;;;23.10;37.26;101472.97;12224233;19;20018;-85
2022/05/14 15:18:35;;;;;;;2.92;1.55;;;24.70;34.50;;;23.12;37.29;101471.00;12223704;19;20018;-84
2022/05/14 15:22:37;;;;;;;4.43;1.50;;;24.80;34.60;;;23.05;37.32;101468.09;12220586;19;20109;-87
2022/05/14 15:26:39;;;;;;;7.15;2.42;;;24.80;34.70;;;23.15;37.04;101470.72;12222523;19;20013;-84
2022/05/14 15:30:40;;;;;;;5.47;2.58;;;24.80;34.70;;;23.07;37.40;101457.28;12222967;19;20057;-85
2022/05/14 15:34:42;;;;;;;7.13;2.35;;;24.90;34.80;;;23.05;37.23;101459.25;12213008;19;20007;-87
2022/05/14 15:38:44;;;;;;;7.45;2.67;;;24.90;34.70;;;22.96;37.01;101445.84;12219852;19;20022;-85
2022/05/14 15:42:53;;;;;;;5.40;2.45;;;24.80;34.60;;;22.98;37.45;101443.03;12223228;19;20482;-85
2022/05/14 15:46:59;;;;;;;6.28;1.98;;;24.80;34.70;;;23.01;36.92;101452.53;12221765;19;20019;-86
2022/05/14 15:51:08;;;;;;;6.50;2.28;;;25.00;34.60;;;22.87;37.24;101424.53;12227689;19;20018;-90
2022/05/14 15:55:24;;;;;;;4.72;2.17;;;24.90;34.50;;;23.07;36.74;101459.94;12221799;19;20337;-84
2022/05/14 15:59:26;;;;;;;4.88;2.10;;;24.80;34.20;;;23.06;37.03;101469.78;12222545;19;20019;-84
2022/05/14 16:03:27;;;;;;;3.42;1.70;;;24.80;34.30;;;22.81;37.22;101441.94;12219421;19;20029;-85
2022/05/14 16:07:29;;;;;;;4.57;2.63;;;24.80;34.40;;;22.61;36.98;101422.56;12214111;19;20018;-84
2022/05/14 16:15:58;;;;;;;3.60;1.63;;;24.70;34.50;;;22.84;37.26;101464.78;12211869;19;20061;-84
2022/05/14 16:20:00;;;;;;;4.13;1.63;;;24.60;34.60;;;22.91;37.02;101466.72;12221272;19;20021;-84
2022/05/14 16:24:02;;;;;;;4.82;1.75;;;24.60;34.70;;;22.87;37.08;101451.16;12219853;19;20015;-83
2022/05/14 16:28:06;;;;;;;3.67;1.83;;;24.60;35.20;;;23.01;37.33;101474.69;12218699;19;20018;-84
2022/05/14 16:32:08;;;;;;;6.72;2.08;;;24.70;34.80;;;22.95;37.38;101461.91;12221113;19;20029;-83
2022/05/14 16:36:12;;;;;;;5.63;1.95;;;24.70;34.80;;;22.97;37.42;101473.31;12220190;19;20022;-84
2022/05/14 16:40:15;;;;;;;3.70;2.13;;;24.70;34.80;;;22.83;37.31;101461.28;12219836;19;20081;-82
2022/05/14 16:44:16;;;;;;;4.53;1.80;;;24.60;34.70;;;22.71;37.27;101449.13;12217401;19;20010;-83
2022/05/14 16:48:18;;;;;;;5.53;1.98;;;25.00;34.70;;;22.54;37.43;101434.75;12223728;19;20025;-82
2022/05/14 16:52:20;;;;;;;4.22;1.95;;;24.50;34.50;;;22.54;37.28;101435.59;12231307;19;20023;-83
2022/05/14 16:56:24;;;;;;;3.70;1.73;;;24.60;34.70;;;22.69;37.34;101462.59;12228183;19;20041;-85
2022/05/14 17:00:35;;;;;;;6.00;1.75;;;24.50;34.60;;;22.74;36.86;101476.31;12234328;19;20018;-84
2022/05/14 17:04:39;;;;;;;3.67;1.63;;;24.40;34.50;;;22.50;37.34;101455.53;12229033;19;20090;-83
2022/05/14 17:08:42;;;;;;;4.47;1.73;;;24.40;34.50;;;22.60;36.95;101475.94;12231639;19;20634;-83
2022/05/14 17:12:43;;;;;;;7.05;1.70;;;24.70;34.50;;;22.57;36.85;101477.06;12232820;19;20018;-84
2022/05/14 17:16:45;;;;;;;4.15;1.70;;;24.40;34.60;;;22.50;37.34;101481.31;12231556;19;20015;-83
2022/05/14 17:20:50;;;;;;;3.50;1.63;;;24.30;34.50;;;22.50;36.96;101492.78;12234603;19;20026;-83
2022/05/14 17:24:52;;;;;;;2.03;1.35;;;24.30;34.50;;;22.42;37.21;101489.16;12229404;19;20110;-83
2022/05/14 17:28:53;;;;;;;2.75;1.17;;;24.20;34.50;;;22.23;37.45;101468.75;12233661;19;20475;-83
2022/05/14 17:32:55;;;;;;;5.28;1.67;;;24.20;34.60;;;22.37;37.00;101496.75;12232505;19;20014;-83
2022/05/14 17:41:16;;;;;;;2.40;1.33;;;24.00;34.50;;;22.17;37.41;101474.59;12230937;19;20022;-83
2022/05/14 17:45:19;;;;;;;3.95;1.27;;;24.10;34.60;;;22.28;37.06;101498.44;12228653;19;20440;-83